createdAt,value
2017-07-17T00:00:04.944Z,50.15
2017-07-17T00:00:33.040Z,49.96
2017-07-17T00:01:01.266Z,50.06
2017-07-17T00:01:29.518Z,50.06
2017-07-17T00:01:57.718Z,50.15
2017-07-17T00:02:25.528Z,50.06
2017-07-17T00:02:53.826Z,50.25
2017-07-17T00:03:21.889Z,50.25
2017-07-17T00:03:49.935Z,50.63
2017-07-17T00:04:18.087Z,50.54
2017-07-17T00:04:46.269Z,50.54
2017-07-17T00:05:14.473Z,50.63
2017-07-17T00:05:42.605Z,50.54
2017-07-17T00:06:10.662Z,50.54
2017-07-17T00:06:38.945Z,50.54
2017-07-17T00:07:07.168Z,50.45
2017-07-17T00:07:35.141Z,50.93
2017-07-17T00:08:03.433Z,51.12
2017-07-17T00:08:31.642Z,51.12
2017-07-17T00:08:59.857Z,51.02
2017-07-17T00:09:27.884Z,51.21
2017-07-17T00:09:56.058Z,51.5
2017-07-17T00:10:24.267Z,51.38
2017-07-17T00:10:52.416Z,51.38
2017-07-17T00:11:20.543Z,51.38
2017-07-17T00:11:48.726Z,51.09
2017-07-17T00:12:16.866Z,51.29
2017-07-17T00:12:45.100Z,51.29
2017-07-17T00:13:13.336Z,51.38
2017-07-17T00:13:41.581Z,51.76
2017-07-17T00:14:09.835Z,51.48
2017-07-17T00:14:38.050Z,51.86
2017-07-17T00:15:06.296Z,51.57
2017-07-17T00:15:34.517Z,51.67
2017-07-17T00:16:02.622Z,52.06
2017-07-17T00:16:30.881Z,52.03
2017-07-17T00:16:59.103Z,52.06
2017-07-17T00:17:27.197Z,52.73
2017-07-17T00:17:55.433Z,52.42
2017-07-17T00:18:23.559Z,52.63
2017-07-17T00:18:51.684Z,52.54
2017-07-17T00:19:19.817Z,52.89
2017-07-17T00:19:47.926Z,52.8
2017-07-17T00:20:15.947Z,52.61
2017-07-17T00:20:44.226Z,52.51
2017-07-17T00:21:12.462Z,52.7
2017-07-17T00:21:40.606Z,52.99
2017-07-17T00:22:08.734Z,52.89
2017-07-17T00:22:36.777Z,53.09
2017-07-17T00:23:05.055Z,53.09
2017-07-17T00:23:33.193Z,53.28
2017-07-17T00:24:01.456Z,53.38
2017-07-17T00:24:29.688Z,53.09
2017-07-17T00:24:57.663Z,53.19
2017-07-17T00:25:25.788Z,53.38
2017-07-17T00:25:53.984Z,53.47
2017-07-17T00:26:22.003Z,53.28
2017-07-17T00:26:50.085Z,53.47
2017-07-17T00:27:18.317Z,53.66
2017-07-17T00:27:46.558Z,53.76
2017-07-17T00:28:14.802Z,53.92
2017-07-17T00:28:42.970Z,53.74
2017-07-17T00:29:11.054Z,54.12
2017-07-17T00:29:39.309Z,54.5
2017-07-17T00:30:07.511Z,54.5
2017-07-17T00:30:35.745Z,54.6
2017-07-17T00:31:03.850Z,55.08
2017-07-17T00:31:32.065Z,54.79
2017-07-17T00:32:00.256Z,55.08
2017-07-17T00:32:28.194Z,54.79
2017-07-17T00:32:56.327Z,54.89
2017-07-17T00:33:24.622Z,55.27
2017-07-17T00:33:52.844Z,55.66
2017-07-17T00:34:20.993Z,55.76
2017-07-17T00:34:49.170Z,55.85
2017-07-17T00:35:17.285Z,56.01
2017-07-17T00:35:45.533Z,55.94
2017-07-17T00:36:13.791Z,56.49
2017-07-17T00:36:42.006Z,56.21
2017-07-17T00:37:10.221Z,56.59
2017-07-17T00:37:38.432Z,56.78
2017-07-17T00:38:06.569Z,56.4
2017-07-17T00:38:34.918Z,57.36
2017-07-17T00:39:03.054Z,57.26
2017-07-17T00:39:31.286Z,56.68
2017-07-17T00:39:59.421Z,56.98
2017-07-17T00:40:27.517Z,57.07
2017-07-17T00:40:55.616Z,57.07
2017-07-17T00:41:23.752Z,57.55
2017-07-17T00:41:51.994Z,57.55
2017-07-17T00:42:20.113Z,57.26
2017-07-17T00:42:48.336Z,57.84
2017-07-17T00:43:16.671Z,58.03
2017-07-17T00:43:44.914Z,58.61
2017-07-17T00:44:13.017Z,58.32
2017-07-17T00:44:41.231Z,58.2
2017-07-17T00:45:09.331Z,58.22
2017-07-17T00:45:37.580Z,58.2
2017-07-17T00:46:05.802Z,58.2
2017-07-17T00:46:34.081Z,58.39
2017-07-17T00:47:02.099Z,58.51
2017-07-17T00:47:30.336Z,58.39
2017-07-17T00:47:58.437Z,58.29
2017-07-17T00:48:26.850Z,58.29
2017-07-17T00:48:54.938Z,58.58
2017-07-17T00:49:23.064Z,58.29
2017-07-17T00:49:51.297Z,58.39
2017-07-17T00:50:19.380Z,58.1
2017-07-17T00:50:47.436Z,58.96
2017-07-17T00:51:15.606Z,58.77
2017-07-17T00:51:43.838Z,58.48
2017-07-17T00:52:11.907Z,58.67
2017-07-17T00:52:40.142Z,58.58
2017-07-17T00:53:08.302Z,58.96
2017-07-17T00:53:36.609Z,58.96
2017-07-17T00:54:04.816Z,59.54
2017-07-17T00:54:32.893Z,59.44
2017-07-17T00:55:01.133Z,60.11
2017-07-17T00:55:29.354Z,59.83
2017-07-17T00:55:57.543Z,60.28
2017-07-17T00:56:25.671Z,60.47
2017-07-17T00:56:53.840Z,60.75
2017-07-17T00:57:22.054Z,61.24
2017-07-17T00:57:50.175Z,61.62
2017-07-17T00:58:18.202Z,61.24
2017-07-17T00:58:46.530Z,61.81
2017-07-17T00:59:14.657Z,61.81
2017-07-17T00:59:42.702Z,61.52
2017-07-17T01:00:10.743Z,62.1
2017-07-17T01:00:38.880Z,62.19
2017-07-17T01:01:07.105Z,62.19
2017-07-17T01:01:35.359Z,62.45
2017-07-17T01:02:03.578Z,62.84
2017-07-17T01:02:31.701Z,62.48
2017-07-17T01:02:59.842Z,62.39
2017-07-17T01:03:28.332Z,62.74
2017-07-17T01:03:56.468Z,62.45
2017-07-17T01:04:24.664Z,62.65
2017-07-17T01:04:52.905Z,62.87
2017-07-17T01:05:20.986Z,62.77
2017-07-17T01:05:49.090Z,62.48
2017-07-17T01:06:17.200Z,62.87
2017-07-17T01:06:45.388Z,62.96
2017-07-17T01:07:13.609Z,63.25
2017-07-17T01:07:41.851Z,63.22
2017-07-17T01:08:10.055Z,63.35
2017-07-17T01:08:38.230Z,63.64
2017-07-17T01:09:06.322Z,63.89
2017-07-17T01:09:34.431Z,65.14
2017-07-17T01:10:02.660Z,65.05
2017-07-17T01:10:30.834Z,65.52
2017-07-17T01:10:59.052Z,65.72
2017-07-17T01:11:27.167Z,66.29
2017-07-17T01:11:55.238Z,66
2017-07-17T01:12:23.438Z,66.58
2017-07-17T01:12:51.640Z,66.77
2017-07-17T01:13:19.678Z,67.06
2017-07-17T01:13:47.865Z,67.35
2017-07-17T01:14:15.993Z,67.54
2017-07-17T01:14:44.115Z,67.63
2017-07-17T01:15:12.152Z,67.83
2017-07-17T01:15:40.225Z,68.5
2017-07-17T01:16:08.452Z,67.89
2017-07-17T01:16:36.569Z,68.3
2017-07-17T01:17:04.598Z,68.66
2017-07-17T01:17:32.687Z,69.33
2017-07-17T01:18:00.824Z,69.71
2017-07-17T01:18:28.922Z,69.71
2017-07-17T01:18:56.963Z,70.48
2017-07-17T01:19:24.995Z,70
2017-07-17T01:19:52.928Z,70.38
2017-07-17T01:20:20.957Z,70.96
2017-07-17T01:20:49.193Z,70.57
2017-07-17T01:21:17.387Z,70.38
2017-07-17T01:21:45.495Z,70.83
2017-07-17T01:22:13.689Z,71.63
2017-07-17T01:22:41.912Z,71.31
2017-07-17T01:23:10.010Z,70.83
2017-07-17T01:23:38.278Z,71.5
2017-07-17T01:24:06.732Z,71.31
2017-07-17T01:24:34.974Z,71.21
2017-07-17T01:25:03.200Z,71.02
2017-07-17T01:25:31.446Z,71.5
2017-07-17T01:25:59.646Z,71.4
2017-07-17T01:26:27.735Z,71.5
2017-07-17T01:26:55.898Z,71.5
2017-07-17T01:27:23.949Z,71.5
2017-07-17T01:27:52.155Z,71.5
2017-07-17T01:28:20.377Z,71.21
2017-07-17T01:28:48.604Z,71.31
2017-07-17T01:29:16.839Z,71.21
2017-07-17T01:29:44.955Z,71.02
2017-07-17T01:30:13.234Z,71.21
2017-07-17T01:30:41.449Z,71.31
2017-07-17T01:31:09.686Z,71.05
2017-07-17T01:31:37.932Z,71.25
2017-07-17T01:32:06.193Z,70.96
2017-07-17T01:32:34.522Z,70.96
2017-07-17T01:33:02.720Z,70.67
2017-07-17T01:33:30.745Z,70.57
2017-07-17T01:33:58.975Z,70.67
2017-07-17T01:34:27.203Z,70.29
2017-07-17T01:34:55.299Z,70.57
2017-07-17T01:35:23.533Z,70
2017-07-17T01:35:51.625Z,70.19
2017-07-17T01:36:19.777Z,69.42
2017-07-17T01:36:47.958Z,69.9
2017-07-17T01:37:16.163Z,69.42
2017-07-17T01:37:44.371Z,69.71
2017-07-17T01:38:12.471Z,69.42
2017-07-17T01:38:40.633Z,69.13
2017-07-17T01:39:08.792Z,69.04
2017-07-17T01:39:37.014Z,68.95
2017-07-17T01:40:05.265Z,68.95
2017-07-17T01:40:33.480Z,68.85
2017-07-17T01:41:01.682Z,68.66
2017-07-17T01:41:29.905Z,68.66
2017-07-17T01:41:58.003Z,68.66
2017-07-17T01:42:26.254Z,68.18
2017-07-17T01:42:54.390Z,68.27
2017-07-17T01:43:22.656Z,68.46
2017-07-17T01:43:50.808Z,68.46
2017-07-17T01:44:18.955Z,67.89
2017-07-17T01:44:47.135Z,67.99
2017-07-17T01:45:15.395Z,68.08
2017-07-17T01:45:43.616Z,68.3
2017-07-17T01:46:11.766Z,68.27
2017-07-17T01:46:39.761Z,68.18
2017-07-17T01:47:08.030Z,68.59
2017-07-17T01:47:36.140Z,68.56
2017-07-17T01:48:04.203Z,68.27
2017-07-17T01:48:32.386Z,68.18
2017-07-17T01:49:00.423Z,68.37
2017-07-17T01:49:28.666Z,68.46
2017-07-17T01:49:56.965Z,68.27
2017-07-17T01:50:25.237Z,68.27
2017-07-17T01:50:53.451Z,68.37
2017-07-17T01:51:21.731Z,68.46
2017-07-17T01:51:49.696Z,68.46
2017-07-17T01:52:17.918Z,68.46
2017-07-17T01:52:46.050Z,68.18
2017-07-17T01:53:14.056Z,67.69
2017-07-17T01:53:42.331Z,67.89
2017-07-17T01:54:10.610Z,68.18
2017-07-17T01:54:38.636Z,68.27
2017-07-17T01:55:06.855Z,68.08
2017-07-17T01:55:35.106Z,68.08
2017-07-17T01:56:03.238Z,67.6
2017-07-17T01:56:31.349Z,67.79
2017-07-17T01:56:59.468Z,68.08
2017-07-17T01:57:27.623Z,67.99
2017-07-17T01:57:55.792Z,67.89
2017-07-17T01:58:23.846Z,67.69
2017-07-17T01:58:52.017Z,67.5
2017-07-17T01:59:20.260Z,67.99
2017-07-17T01:59:48.430Z,67.89
2017-07-17T02:00:16.521Z,67.79
2017-07-17T02:00:44.503Z,67.69
2017-07-17T02:01:12.620Z,67.89
2017-07-17T02:01:40.846Z,67.5
2017-07-17T02:02:09.125Z,67.32
2017-07-17T02:02:37.406Z,67.41
2017-07-17T02:03:05.673Z,67.32
2017-07-17T02:03:33.896Z,67.32
2017-07-17T02:04:02.113Z,66.93
2017-07-17T02:04:30.335Z,66.93
2017-07-17T02:04:58.637Z,66.74
2017-07-17T02:05:26.793Z,66.64
2017-07-17T02:05:54.921Z,66.55
2017-07-17T02:06:22.999Z,66.55
2017-07-17T02:06:51.199Z,66.74
2017-07-17T02:07:19.520Z,66.35
2017-07-17T02:07:47.735Z,66.74
2017-07-17T02:08:15.875Z,66.83
2017-07-17T02:08:44.123Z,66.64
2017-07-17T02:09:12.433Z,66.45
2017-07-17T02:09:40.665Z,67.22
2017-07-17T02:10:08.817Z,67.02
2017-07-17T02:10:36.858Z,67.32
2017-07-17T02:11:05.028Z,67.32
2017-07-17T02:11:33.028Z,67.69
2017-07-17T02:12:01.139Z,67.5
2017-07-17T02:12:29.244Z,67.69
2017-07-17T02:12:57.350Z,67.28
2017-07-17T02:13:25.592Z,67.57
2017-07-17T02:13:53.834Z,67.28
2017-07-17T02:14:22.200Z,67.47
2017-07-17T02:14:50.310Z,67.38
2017-07-17T02:15:18.412Z,67.12
2017-07-17T02:15:46.699Z,67.41
2017-07-17T02:16:14.825Z,67.32
2017-07-17T02:16:42.887Z,67.32
2017-07-17T02:17:10.915Z,67.28
2017-07-17T02:17:39.124Z,67.32
2017-07-17T02:18:07.263Z,67.47
2017-07-17T02:18:35.282Z,67.69
2017-07-17T02:19:03.526Z,67.76
2017-07-17T02:19:31.818Z,67.95
2017-07-17T02:19:59.909Z,67.76
2017-07-17T02:20:28.126Z,67.47
2017-07-17T02:20:56.326Z,67.76
2017-07-17T02:21:24.193Z,67.76
2017-07-17T02:21:52.305Z,67.47
2017-07-17T02:22:20.548Z,67.85
2017-07-17T02:22:48.773Z,67.47
2017-07-17T02:23:16.907Z,67.66
2017-07-17T02:23:45.074Z,67.76
2017-07-17T02:24:13.114Z,67.85
2017-07-17T02:24:41.321Z,67.85
2017-07-17T02:25:09.480Z,67.79
2017-07-17T02:25:37.483Z,67.57
2017-07-17T02:26:05.605Z,67.38
2017-07-17T02:26:33.728Z,67.18
2017-07-17T02:27:01.760Z,67.22
2017-07-17T02:27:29.861Z,67.32
2017-07-17T02:27:58.043Z,67.32
2017-07-17T02:28:26.188Z,66.74
2017-07-17T02:28:54.413Z,66.93
2017-07-17T02:29:22.756Z,67.02
2017-07-17T02:29:50.899Z,67.22
2017-07-17T02:30:19.017Z,67.02
2017-07-17T02:30:47.277Z,67.02
2017-07-17T02:31:15.308Z,66.93
2017-07-17T02:31:43.395Z,67.47
2017-07-17T02:32:11.535Z,67.57
2017-07-17T02:32:39.429Z,67.22
2017-07-17T02:33:07.677Z,67.22
2017-07-17T02:33:35.913Z,68.08
2017-07-17T02:34:03.816Z,67.99
2017-07-17T02:34:31.992Z,67.79
2017-07-17T02:35:00.276Z,67.41
2017-07-17T02:35:28.426Z,67.41
2017-07-17T02:35:56.482Z,67.18
2017-07-17T02:36:24.718Z,67.57
2017-07-17T02:36:52.923Z,67.6
2017-07-17T02:37:21.033Z,67.57
2017-07-17T02:37:49.272Z,67.41
2017-07-17T02:38:17.428Z,67.12
2017-07-17T02:38:45.649Z,67.38
2017-07-17T02:39:13.673Z,67.18
2017-07-17T02:39:41.759Z,67.47
2017-07-17T02:40:09.874Z,68.05
2017-07-17T02:40:37.892Z,67.85
2017-07-17T02:41:06.012Z,67.76
2017-07-17T02:41:34.215Z,67.66
2017-07-17T02:42:02.276Z,68.05
2017-07-17T02:42:30.406Z,67.85
2017-07-17T02:42:58.501Z,67.57
2017-07-17T02:43:26.462Z,67.57
2017-07-17T02:43:54.610Z,67.95
2017-07-17T02:44:22.708Z,68.24
2017-07-17T02:44:51.086Z,68.24
2017-07-17T02:45:19.088Z,68.33
2017-07-17T02:45:47.211Z,68.11
2017-07-17T02:46:15.279Z,68.59
2017-07-17T02:46:43.490Z,68.87
2017-07-17T02:47:11.676Z,68.87
2017-07-17T02:47:39.848Z,68.97
2017-07-17T02:48:08.107Z,69.07
2017-07-17T02:48:36.332Z,69.07
2017-07-17T02:49:04.572Z,69.26
2017-07-17T02:49:32.596Z,69.26
2017-07-17T02:50:00.701Z,69.64
2017-07-17T02:50:28.927Z,69.64
2017-07-17T02:50:57.066Z,69.64
2017-07-17T02:51:25.225Z,69.64
2017-07-17T02:51:53.318Z,69.64
2017-07-17T02:52:21.615Z,69.35
2017-07-17T02:52:49.657Z,69.54
2017-07-17T02:53:17.931Z,69.64
2017-07-17T02:53:46.151Z,69.54
2017-07-17T02:54:14.329Z,69.64
2017-07-17T02:54:42.542Z,69.74
2017-07-17T02:55:10.700Z,69.35
2017-07-17T02:55:38.851Z,69.45
2017-07-17T02:56:07.117Z,68.97
2017-07-17T02:56:35.318Z,68.97
2017-07-17T02:57:03.569Z,69.07
2017-07-17T02:57:31.521Z,69.01
2017-07-17T02:57:59.635Z,69.01
2017-07-17T02:58:27.843Z,68.52
2017-07-17T02:58:55.861Z,68.72
2017-07-17T02:59:23.877Z,68.81
2017-07-17T02:59:52.142Z,68.62
2017-07-17T03:00:20.346Z,68.91
2017-07-17T03:00:48.570Z,69.01
2017-07-17T03:01:16.836Z,68.72
2017-07-17T03:01:44.868Z,68.91
2017-07-17T03:02:12.993Z,68.81
2017-07-17T03:02:41.172Z,68.91
2017-07-17T03:03:09.260Z,68.81
2017-07-17T03:03:37.415Z,68.91
2017-07-17T03:04:05.603Z,68.62
2017-07-17T03:04:33.766Z,68.81
2017-07-17T03:05:01.968Z,68.52
2017-07-17T03:05:30.076Z,68.33
2017-07-17T03:05:58.365Z,68.05
2017-07-17T03:06:26.508Z,68.24
2017-07-17T03:06:54.731Z,68.14
2017-07-17T03:07:22.915Z,67.85
2017-07-17T03:07:51.039Z,67.76
2017-07-17T03:08:19.289Z,68.05
2017-07-17T03:08:47.366Z,67.76
2017-07-17T03:09:15.618Z,67.85
2017-07-17T03:09:43.759Z,67.47
2017-07-17T03:10:12.010Z,67.85
2017-07-17T03:10:40.180Z,67.85
2017-07-17T03:11:08.322Z,67.57
2017-07-17T03:11:36.383Z,67.66
2017-07-17T03:12:04.608Z,67.38
2017-07-17T03:12:32.731Z,67.66
2017-07-17T03:13:00.759Z,67.76
2017-07-17T03:13:28.969Z,67.76
2017-07-17T03:13:57.068Z,67.85
2017-07-17T03:14:25.307Z,67.76
2017-07-17T03:14:53.415Z,67.66
2017-07-17T03:15:21.547Z,67.76
2017-07-17T03:15:49.685Z,67.76
2017-07-17T03:16:17.797Z,68.05
2017-07-17T03:16:45.978Z,67.66
2017-07-17T03:17:13.990Z,68.33
2017-07-17T03:17:41.827Z,68.33
2017-07-17T03:18:09.777Z,68.05
2017-07-17T03:18:38.213Z,68.43
2017-07-17T03:19:06.432Z,68.33
2017-07-17T03:19:34.658Z,68.43
2017-07-17T03:20:02.779Z,67.95
2017-07-17T03:20:30.785Z,68.52
2017-07-17T03:20:58.934Z,67.95
2017-07-17T03:21:26.886Z,68.14
2017-07-17T03:21:54.889Z,67.76
2017-07-17T03:22:23.045Z,68.05
2017-07-17T03:22:51.257Z,67.76
2017-07-17T03:23:19.401Z,67.66
2017-07-17T03:23:47.591Z,67.85
2017-07-17T03:24:15.615Z,67.66
2017-07-17T03:24:43.757Z,67.95
2017-07-17T03:25:12.099Z,67.57
2017-07-17T03:25:40.233Z,67.66
2017-07-17T03:26:08.461Z,67.95
2017-07-17T03:26:36.586Z,67.76
2017-07-17T03:27:04.738Z,67.76
2017-07-17T03:27:32.745Z,67.85
2017-07-17T03:28:00.957Z,67.76
2017-07-17T03:28:29.191Z,67.95
2017-07-17T03:28:57.382Z,68.05
2017-07-17T03:29:25.659Z,68.14
2017-07-17T03:29:53.751Z,68.43
2017-07-17T03:30:21.961Z,68.24
2017-07-17T03:30:49.975Z,68.01
2017-07-17T03:31:17.988Z,68.01
2017-07-17T03:31:46.109Z,68.4
2017-07-17T03:32:14.087Z,68.78
2017-07-17T03:32:42.049Z,68.87
2017-07-17T03:33:10.278Z,68.59
2017-07-17T03:33:38.435Z,68.78
2017-07-17T03:34:06.481Z,68.87
2017-07-17T03:34:34.560Z,68.87
2017-07-17T03:35:02.813Z,68.87
2017-07-17T03:35:31.002Z,68.78
2017-07-17T03:35:59.165Z,68.78
2017-07-17T03:36:27.317Z,68.78
2017-07-17T03:36:55.469Z,68.78
2017-07-17T03:37:23.598Z,68.87
2017-07-17T03:37:51.676Z,68.87
2017-07-17T03:38:19.661Z,68.87
2017-07-17T03:38:47.661Z,68.52
2017-07-17T03:39:15.913Z,68.43
2017-07-17T03:39:44.153Z,68.14
2017-07-17T03:40:12.496Z,68.24
2017-07-17T03:40:40.743Z,68.52
2017-07-17T03:41:08.943Z,68.14
2017-07-17T03:41:37.084Z,68.05
2017-07-17T03:42:05.309Z,68.43
2017-07-17T03:42:33.538Z,68.24
2017-07-17T03:43:01.678Z,68.33
2017-07-17T03:43:29.766Z,68.52
2017-07-17T03:43:57.773Z,68.43
2017-07-17T03:44:25.901Z,68.05
2017-07-17T03:44:53.889Z,67.85
2017-07-17T03:45:21.889Z,67.95
2017-07-17T03:45:50.000Z,67.95
2017-07-17T03:46:17.992Z,68.14
2017-07-17T03:46:46.207Z,67.76
2017-07-17T03:47:14.328Z,67.47
2017-07-17T03:47:42.441Z,67.76
2017-07-17T03:48:10.453Z,67.66
2017-07-17T03:48:38.662Z,67.85
2017-07-17T03:49:06.898Z,67.76
2017-07-17T03:49:35.075Z,67.66
2017-07-17T03:50:03.178Z,68.24
2017-07-17T03:50:31.472Z,67.57
2017-07-17T03:50:59.601Z,67.95
2017-07-17T03:51:27.623Z,67.95
2017-07-17T03:51:55.770Z,67.47
2017-07-17T03:52:24.011Z,67.85
2017-07-17T03:52:52.091Z,67.95
2017-07-17T03:53:20.182Z,67.47
2017-07-17T03:53:48.293Z,67.28
2017-07-17T03:54:16.320Z,67.28
2017-07-17T03:54:44.538Z,67.28
2017-07-17T03:55:12.733Z,67.28
2017-07-17T03:55:40.894Z,67.47
2017-07-17T03:56:08.985Z,67.47
2017-07-17T03:56:37.102Z,67.38
2017-07-17T03:57:05.210Z,67.38
2017-07-17T03:57:33.273Z,67.57
2017-07-17T03:58:01.459Z,67.47
2017-07-17T03:58:29.652Z,67.47
2017-07-17T03:58:57.865Z,67.28
2017-07-17T03:59:26.151Z,67.18
2017-07-17T03:59:54.384Z,67.47
2017-07-17T04:00:22.646Z,67.28
2017-07-17T04:00:50.868Z,67.18
2017-07-17T04:01:18.871Z,67.38
2017-07-17T04:01:47.127Z,67.28
2017-07-17T04:02:15.349Z,67.28
2017-07-17T04:02:43.409Z,67.28
2017-07-17T04:03:11.343Z,67.18
2017-07-17T04:03:39.541Z,67.28
2017-07-17T04:04:07.532Z,67.47
2017-07-17T04:04:35.566Z,67.57
2017-07-17T04:05:03.839Z,67.76
2017-07-17T04:05:31.859Z,67.85
2017-07-17T04:05:59.995Z,67.95
2017-07-17T04:06:28.259Z,67.85
2017-07-17T04:06:56.357Z,67.47
2017-07-17T04:07:24.437Z,67.76
2017-07-17T04:07:52.470Z,67.66
2017-07-17T04:08:20.623Z,67.57
2017-07-17T04:08:48.701Z,67.91
2017-07-17T04:09:16.866Z,68.24
2017-07-17T04:09:44.874Z,68.11
2017-07-17T04:10:13.046Z,68.4
2017-07-17T04:10:41.057Z,68.01
2017-07-17T04:11:09.258Z,68.01
2017-07-17T04:11:37.305Z,68.4
2017-07-17T04:12:05.441Z,68.21
2017-07-17T04:12:33.624Z,68.78
2017-07-17T04:13:01.855Z,68.49
2017-07-17T04:13:30.134Z,68.78
2017-07-17T04:13:58.193Z,68.68
2017-07-17T04:14:26.482Z,68.97
2017-07-17T04:14:54.411Z,69.17
2017-07-17T04:15:22.601Z,68.87
2017-07-17T04:15:50.949Z,69.35
2017-07-17T04:16:19.145Z,69.54
2017-07-17T04:16:47.352Z,69.45
2017-07-17T04:17:15.612Z,69.35
2017-07-17T04:17:43.766Z,69.26
2017-07-17T04:18:11.787Z,69.35
2017-07-17T04:18:39.913Z,69.54
2017-07-17T04:19:08.099Z,69.26
2017-07-17T04:19:36.023Z,69.35
2017-07-17T04:20:04.117Z,68.87
2017-07-17T04:20:32.455Z,68.97
2017-07-17T04:21:00.477Z,68.97
2017-07-17T04:21:28.611Z,68.87
2017-07-17T04:21:56.921Z,69.07
2017-07-17T04:22:25.134Z,68.97
2017-07-17T04:22:53.339Z,69.45
2017-07-17T04:23:21.456Z,69.35
2017-07-17T04:23:49.592Z,69.54
2017-07-17T04:24:17.732Z,69.35
2017-07-17T04:24:45.971Z,69.83
2017-07-17T04:25:14.233Z,69.64
2017-07-17T04:25:42.504Z,69.45
2017-07-17T04:26:10.644Z,69.54
2017-07-17T04:26:38.882Z,69.64
2017-07-17T04:27:07.101Z,70.31
2017-07-17T04:27:35.125Z,70.21
2017-07-17T04:28:03.338Z,70.31
2017-07-17T04:28:31.555Z,70.03
2017-07-17T04:28:59.756Z,70.41
2017-07-17T04:29:27.986Z,70.09
2017-07-17T04:29:56.210Z,70.56
2017-07-17T04:30:24.309Z,70.47
2017-07-17T04:30:52.559Z,70.47
2017-07-17T04:31:20.693Z,70.66
2017-07-17T04:31:48.828Z,70.37
2017-07-17T04:32:16.953Z,70.47
2017-07-17T04:32:45.043Z,70.85
2017-07-17T04:33:13.187Z,71.04
2017-07-17T04:33:41.360Z,71.33
2017-07-17T04:34:09.411Z,71.04
2017-07-17T04:34:37.287Z,71.42
2017-07-17T04:35:05.255Z,71.04
2017-07-17T04:35:33.268Z,71.04
2017-07-17T04:36:01.542Z,71.2
2017-07-17T04:36:29.475Z,71.23
2017-07-17T04:36:57.503Z,71.33
2017-07-17T04:37:25.544Z,71.42
2017-07-17T04:37:53.695Z,71.71
2017-07-17T04:38:21.903Z,71.91
2017-07-17T04:38:50.127Z,71.91
2017-07-17T04:39:18.147Z,71.91
2017-07-17T04:39:46.439Z,71.33
2017-07-17T04:40:14.583Z,71.42
2017-07-17T04:40:42.846Z,71.42
2017-07-17T04:41:11.061Z,71.71
2017-07-17T04:41:39.090Z,71.52
2017-07-17T04:42:07.320Z,71.42
2017-07-17T04:42:35.425Z,71.62
2017-07-17T04:43:03.579Z,71.52
2017-07-17T04:43:31.600Z,71.33
2017-07-17T04:43:59.763Z,71.39
2017-07-17T04:44:28.015Z,72.06
2017-07-17T04:44:56.171Z,71.77
2017-07-17T04:45:24.377Z,71.58
2017-07-17T04:45:52.679Z,71.68
2017-07-17T04:46:20.812Z,71.58
2017-07-17T04:46:48.799Z,71.39
2017-07-17T04:47:16.855Z,71.77
2017-07-17T04:47:45.086Z,72.06
2017-07-17T04:48:12.948Z,72.44
2017-07-17T04:48:41.047Z,72.63
2017-07-17T04:49:09.096Z,72.63
2017-07-17T04:49:37.000Z,72.54
2017-07-17T04:50:04.931Z,72.44
2017-07-17T04:50:33.160Z,72.44
2017-07-17T04:51:01.485Z,72.63
2017-07-17T04:51:29.605Z,73.21
2017-07-17T04:51:57.803Z,72.88
2017-07-17T04:52:25.881Z,73.27
2017-07-17T04:52:54.021Z,73.17
2017-07-17T04:53:21.865Z,73.36
2017-07-17T04:53:50.036Z,73.27
2017-07-17T04:54:18.171Z,73.36
2017-07-17T04:54:46.250Z,73.36
2017-07-17T04:55:14.332Z,73.17
2017-07-17T04:55:42.525Z,73.75
2017-07-17T04:56:10.763Z,73.75
2017-07-17T04:56:38.824Z,73.65
2017-07-17T04:57:07.020Z,73.65
2017-07-17T04:57:35.108Z,73.84
2017-07-17T04:58:03.314Z,74.13
2017-07-17T04:58:31.402Z,74.04
2017-07-17T04:58:59.399Z,74.04
2017-07-17T04:59:27.604Z,74.22
2017-07-17T04:59:55.790Z,74.04
2017-07-17T05:00:24.064Z,73.94
2017-07-17T05:00:52.278Z,74.51
2017-07-17T05:01:20.543Z,74.8
2017-07-17T05:01:48.807Z,74.8
2017-07-17T05:02:16.927Z,74.61
2017-07-17T05:02:45.068Z,74.9
2017-07-17T05:03:13.222Z,74.61
2017-07-17T05:03:41.395Z,74.8
2017-07-17T05:04:09.467Z,74.28
2017-07-17T05:04:37.596Z,74.66
2017-07-17T05:05:05.802Z,74.19
2017-07-17T05:05:33.939Z,74.85
2017-07-17T05:06:02.185Z,74.09
2017-07-17T05:06:30.332Z,74.8
2017-07-17T05:06:58.451Z,74.57
2017-07-17T05:07:26.701Z,74.66
2017-07-17T05:07:54.841Z,73.8
2017-07-17T05:08:22.964Z,74.66
2017-07-17T05:08:50.995Z,74.28
2017-07-17T05:09:19.180Z,74.38
2017-07-17T05:09:47.375Z,75.05
2017-07-17T05:10:15.365Z,74.85
2017-07-17T05:10:43.469Z,74.99
2017-07-17T05:11:11.795Z,74.48
2017-07-17T05:11:39.983Z,74.99
2017-07-17T05:12:08.086Z,74.57
2017-07-17T05:12:36.122Z,74.95
2017-07-17T05:13:04.266Z,74.95
2017-07-17T05:13:32.262Z,75.24
2017-07-17T05:14:00.290Z,74.76
2017-07-17T05:14:28.531Z,75.05
2017-07-17T05:14:56.656Z,74.76
2017-07-17T05:15:24.772Z,74.66
2017-07-17T05:15:52.972Z,74.95
2017-07-17T05:16:21.241Z,75.52
2017-07-17T05:16:49.165Z,75.24
2017-07-17T05:17:17.330Z,75.05
2017-07-17T05:17:45.586Z,75.34
2017-07-17T05:18:13.808Z,75.34
2017-07-17T05:18:41.909Z,75.71
2017-07-17T05:19:10.040Z,75.62
2017-07-17T05:19:38.241Z,75.52
2017-07-17T05:20:06.278Z,75.81
2017-07-17T05:20:34.369Z,76.1
2017-07-17T05:21:02.495Z,75.81
2017-07-17T05:21:30.688Z,76.1
2017-07-17T05:21:58.835Z,76.2
2017-07-17T05:22:27.084Z,75.71
2017-07-17T05:22:55.006Z,75.52
2017-07-17T05:23:23.135Z,75.62
2017-07-17T05:23:51.348Z,75.71
2017-07-17T05:24:19.402Z,75.91
2017-07-17T05:24:47.605Z,75.91
2017-07-17T05:25:15.741Z,76.57
2017-07-17T05:25:44.025Z,76.29
2017-07-17T05:26:12.226Z,76.29
2017-07-17T05:26:40.474Z,76.57
2017-07-17T05:27:08.627Z,76.48
2017-07-17T05:27:36.831Z,76.48
2017-07-17T05:28:04.956Z,77.25
2017-07-17T05:28:33.155Z,77.25
2017-07-17T05:29:01.382Z,76.96
2017-07-17T05:29:29.494Z,77.15
2017-07-17T05:29:57.710Z,76.96
2017-07-17T05:30:25.932Z,77.25
2017-07-17T05:30:54.026Z,77.25
2017-07-17T05:31:22.213Z,77.4
2017-07-17T05:31:50.342Z,77.3
2017-07-17T05:32:18.474Z,77.5
2017-07-17T05:32:46.512Z,77.44
2017-07-17T05:33:14.550Z,77.87
2017-07-17T05:33:42.777Z,77.69
2017-07-17T05:34:10.898Z,77.87
2017-07-17T05:34:39.010Z,77.59
2017-07-17T05:35:07.173Z,77.4
2017-07-17T05:35:35.336Z,78.45
2017-07-17T05:36:03.443Z,78.26
2017-07-17T05:36:31.798Z,78.55
2017-07-17T05:36:59.963Z,78.45
2017-07-17T05:37:28.108Z,78.55
2017-07-17T05:37:56.241Z,79.12
2017-07-17T05:38:24.487Z,79.12
2017-07-17T05:38:52.719Z,78.93
2017-07-17T05:39:20.915Z,78.74
2017-07-17T05:39:49.116Z,78.83
2017-07-17T05:40:17.341Z,79.02
2017-07-17T05:40:45.445Z,79.02
2017-07-17T05:41:13.534Z,78.93
2017-07-17T05:41:41.773Z,79.6
2017-07-17T05:42:09.907Z,79.31
2017-07-17T05:42:38.146Z,79.22
2017-07-17T05:43:06.170Z,79.41
2017-07-17T05:43:34.316Z,79.5
2017-07-17T05:44:02.527Z,79.41
2017-07-17T05:44:30.614Z,79.12
2017-07-17T05:44:58.623Z,79.22
2017-07-17T05:45:26.562Z,79.41
2017-07-17T05:45:54.788Z,79.6
2017-07-17T05:46:22.965Z,79.6
2017-07-17T05:46:51.367Z,79.88
2017-07-17T05:47:19.366Z,79.69
2017-07-17T05:47:47.495Z,79.6
2017-07-17T05:48:15.640Z,79.79
2017-07-17T05:48:43.667Z,79.6
2017-07-17T05:49:11.875Z,79.79
2017-07-17T05:49:39.890Z,80.41
2017-07-17T05:50:08.123Z,80.27
2017-07-17T05:50:36.198Z,79.79
2017-07-17T05:51:04.314Z,80.13
2017-07-17T05:51:32.451Z,79.94
2017-07-17T05:52:00.903Z,79.88
2017-07-17T05:52:29.160Z,80.13
2017-07-17T05:52:57.332Z,80.32
2017-07-17T05:53:25.504Z,80.41
2017-07-17T05:53:53.541Z,80.41
2017-07-17T05:54:21.686Z,80.61
2017-07-17T05:54:49.927Z,81.18
2017-07-17T05:55:18.040Z,80.8
2017-07-17T05:55:46.288Z,81.09
2017-07-17T05:56:14.444Z,81.18
2017-07-17T05:56:42.615Z,80.9
2017-07-17T05:57:10.867Z,80.9
2017-07-17T05:57:39.018Z,80.99
2017-07-17T05:58:07.246Z,81.47
2017-07-17T05:58:35.376Z,81.27
2017-07-17T05:59:03.490Z,81.37
2017-07-17T05:59:31.621Z,81.56
2017-07-17T05:59:59.752Z,80.99
2017-07-17T06:00:27.796Z,81.18
2017-07-17T06:00:55.945Z,81.32
2017-07-17T06:01:24.162Z,81.27
2017-07-17T06:01:52.564Z,81.27
2017-07-17T06:02:20.662Z,81.32
2017-07-17T06:02:48.874Z,81.27
2017-07-17T06:03:17.034Z,81.37